sensor_id;sensor_type;location;lat;lon;timestamp;temperature;humidity
68924;DHT22;55961;52.156;20.942;2022-07-17T00:01:54;13.10;78.80
68924;DHT22;55961;52.156;20.942;2022-07-17T00:04:20;13.10;78.90
68924;DHT22;55961;52.156;20.942;2022-07-17T00:06:46;13.10;78.70
68924;DHT22;55961;52.156;20.942;2022-07-17T00:09:11;13.10;78.70
68924;DHT22;55961;52.156;20.942;2022-07-17T00:11:37;13.10;78.60
68924;DHT22;55961;52.156;20.942;2022-07-17T00:14:03;13.10;78.40
68924;DHT22;55961;52.156;20.942;2022-07-17T00:16:29;13.10;78.50
68924;DHT22;55961;52.156;20.942;2022-07-17T00:18:55;13.10;78.40
68924;DHT22;55961;52.156;20.942;2022-07-17T00:21:21;13.10;78.40
68924;DHT22;55961;52.156;20.942;2022-07-17T00:23:47;13.10;78.50
68924;DHT22;55961;52.156;20.942;2022-07-17T00:26:13;13.10;78.50
68924;DHT22;55961;52.156;20.942;2022-07-17T00:28:39;13.10;78.50
68924;DHT22;55961;52.156;20.942;2022-07-17T00:31:06;13.10;78.60
68924;DHT22;55961;52.156;20.942;2022-07-17T00:33:32;13.10;78.60
68924;DHT22;55961;52.156;20.942;2022-07-17T00:35:57;13.10;78.70
68924;DHT22;55961;52.156;20.942;2022-07-17T00:38:23;13.10;78.80
68924;DHT22;55961;52.156;20.942;2022-07-17T00:40:52;13.10;78.90
68924;DHT22;55961;52.156;20.942;2022-07-17T00:43:18;13.10;78.80
68924;DHT22;55961;52.156;20.942;2022-07-17T00:45:43;13.10;79.00
68924;DHT22;55961;52.156;20.942;2022-07-17T00:48:11;13.10;79.10
68924;DHT22;55961;52.156;20.942;2022-07-17T00:50:39;13.10;79.10
68924;DHT22;55961;52.156;20.942;2022-07-17T00:53:06;13.10;79.30
68924;DHT22;55961;52.156;20.942;2022-07-17T00:55:32;13.10;79.30
68924;DHT22;55961;52.156;20.942;2022-07-17T00:58:01;13.10;79.20
68924;DHT22;55961;52.156;20.942;2022-07-17T01:00:28;13.10;79.20
68924;DHT22;55961;52.156;20.942;2022-07-17T01:02:55;13.10;79.30
68924;DHT22;55961;52.156;20.942;2022-07-17T01:05:22;13.10;79.20
68924;DHT22;55961;52.156;20.942;2022-07-17T01:07:49;13.10;79.40
68924;DHT22;55961;52.156;20.942;2022-07-17T01:10:16;13.10;79.30
68924;DHT22;55961;52.156;20.942;2022-07-17T01:12:43;13.10;79.10
68924;DHT22;55961;52.156;20.942;2022-07-17T01:15:09;13.10;79.10
68924;DHT22;55961;52.156;20.942;2022-07-17T01:17:36;13.10;79.10
68924;DHT22;55961;52.156;20.942;2022-07-17T01:20:07;13.10;79.10
68924;DHT22;55961;52.156;20.942;2022-07-17T01:22:44;13.10;79.30
68924;DHT22;55961;52.156;20.942;2022-07-17T01:25:10;13.00;79.40
68924;DHT22;55961;52.156;20.942;2022-07-17T01:27:36;13.00;79.30
68924;DHT22;55961;52.156;20.942;2022-07-17T01:30:03;13.00;79.40
68924;DHT22;55961;52.156;20.942;2022-07-17T01:32:39;13.00;79.30
68924;DHT22;55961;52.156;20.942;2022-07-17T01:35:07;13.00;79.30
68924;DHT22;55961;52.156;20.942;2022-07-17T01:37:33;13.00;79.00
68924;DHT22;55961;52.156;20.942;2022-07-17T01:39:59;13.00;79.10
68924;DHT22;55961;52.156;20.942;2022-07-17T01:42:26;13.00;79.10
68924;DHT22;55961;52.156;20.942;2022-07-17T01:44:54;13.00;79.20
68924;DHT22;55961;52.156;20.942;2022-07-17T01:47:21;12.90;79.30
68924;DHT22;55961;52.156;20.942;2022-07-17T01:49:52;12.90;79.40
68924;DHT22;55961;52.156;20.942;2022-07-17T01:52:19;12.90;79.30
68924;DHT22;55961;52.156;20.942;2022-07-17T01:54:45;12.90;79.50
68924;DHT22;55961;52.156;20.942;2022-07-17T01:57:11;12.90;79.50
68924;DHT22;55961;52.156;20.942;2022-07-17T01:59:37;12.90;79.60
68924;DHT22;55961;52.156;20.942;2022-07-17T02:02:04;12.90;79.70
68924;DHT22;55961;52.156;20.942;2022-07-17T02:04:35;12.90;79.90
68924;DHT22;55961;52.156;20.942;2022-07-17T02:07:02;12.90;79.90
68924;DHT22;55961;52.156;20.942;2022-07-17T02:09:28;12.90;80.00
68924;DHT22;55961;52.156;20.942;2022-07-17T02:11:54;12.90;79.90
68924;DHT22;55961;52.156;20.942;2022-07-17T02:14:22;12.90;79.70
68924;DHT22;55961;52.156;20.942;2022-07-17T02:16:48;12.90;79.80
68924;DHT22;55961;52.156;20.942;2022-07-17T02:19:14;12.90;79.70
68924;DHT22;55961;52.156;20.942;2022-07-17T02:21:40;12.90;79.60
68924;DHT22;55961;52.156;20.942;2022-07-17T02:24:06;12.90;79.60
68924;DHT22;55961;52.156;20.942;2022-07-17T02:26:32;12.90;79.70
68924;DHT22;55961;52.156;20.942;2022-07-17T02:28:58;12.80;79.60
68924;DHT22;55961;52.156;20.942;2022-07-17T02:31:24;12.80;79.70
68924;DHT22;55961;52.156;20.942;2022-07-17T02:33:49;12.80;79.70
68924;DHT22;55961;52.156;20.942;2022-07-17T02:36:15;12.80;79.80
68924;DHT22;55961;52.156;20.942;2022-07-17T02:38:41;12.80;79.80
68924;DHT22;55961;52.156;20.942;2022-07-17T02:41:07;12.80;79.90
68924;DHT22;55961;52.156;20.942;2022-07-17T02:43:33;12.70;79.90
68924;DHT22;55961;52.156;20.942;2022-07-17T02:46:00;12.70;80.10
68924;DHT22;55961;52.156;20.942;2022-07-17T02:48:26;12.70;80.10
68924;DHT22;55961;52.156;20.942;2022-07-17T02:50:52;12.70;80.30
68924;DHT22;55961;52.156;20.942;2022-07-17T02:53:18;12.70;80.50
68924;DHT22;55961;52.156;20.942;2022-07-17T02:55:43;12.70;80.50
68924;DHT22;55961;52.156;20.942;2022-07-17T02:58:10;12.70;80.40
68924;DHT22;55961;52.156;20.942;2022-07-17T03:00:35;12.60;80.50
68924;DHT22;55961;52.156;20.942;2022-07-17T03:03:01;12.70;80.40
68924;DHT22;55961;52.156;20.942;2022-07-17T03:05:27;12.60;80.40
68924;DHT22;55961;52.156;20.942;2022-07-17T03:07:53;12.70;80.40
68924;DHT22;55961;52.156;20.942;2022-07-17T03:10:19;12.60;80.40
68924;DHT22;55961;52.156;20.942;2022-07-17T03:12:45;12.60;80.40
68924;DHT22;55961;52.156;20.942;2022-07-17T03:15:11;12.60;80.40
68924;DHT22;55961;52.156;20.942;2022-07-17T03:17:39;12.60;80.50
68924;DHT22;55961;52.156;20.942;2022-07-17T03:20:07;12.60;80.40
68924;DHT22;55961;52.156;20.942;2022-07-17T03:22:33;12.60;80.50
68924;DHT22;55961;52.156;20.942;2022-07-17T03:24:58;12.60;80.40
68924;DHT22;55961;52.156;20.942;2022-07-17T03:27:24;12.60;80.40
68924;DHT22;55961;52.156;20.942;2022-07-17T03:29:51;12.60;80.50
68924;DHT22;55961;52.156;20.942;2022-07-17T03:32:17;12.60;80.50
68924;DHT22;55961;52.156;20.942;2022-07-17T03:34:43;12.60;80.50
68924;DHT22;55961;52.156;20.942;2022-07-17T03:37:09;12.70;80.70
68924;DHT22;55961;52.156;20.942;2022-07-17T03:39:35;12.60;80.80
68924;DHT22;55961;52.156;20.942;2022-07-17T03:42:01;12.70;80.80
68924;DHT22;55961;52.156;20.942;2022-07-17T03:44:27;12.70;81.00
68924;DHT22;55961;52.156;20.942;2022-07-17T03:46:53;12.70;81.00
68924;DHT22;55961;52.156;20.942;2022-07-17T03:49:18;12.80;80.70
68924;DHT22;55961;52.156;20.942;2022-07-17T03:51:44;12.70;80.70
68924;DHT22;55961;52.156;20.942;2022-07-17T03:54:10;12.80;80.70
68924;DHT22;55961;52.156;20.942;2022-07-17T03:56:36;12.80;80.70
68924;DHT22;55961;52.156;20.942;2022-07-17T03:59:02;12.80;80.70
68924;DHT22;55961;52.156;20.942;2022-07-17T04:01:28;12.90;80.60
68924;DHT22;55961;52.156;20.942;2022-07-17T04:03:54;12.90;80.60
68924;DHT22;55961;52.156;20.942;2022-07-17T04:06:20;12.90;80.60
68924;DHT22;55961;52.156;20.942;2022-07-17T04:08:45;12.90;80.70
68924;DHT22;55961;52.156;20.942;2022-07-17T04:11:11;13.00;80.60
68924;DHT22;55961;52.156;20.942;2022-07-17T04:13:37;13.00;80.30
68924;DHT22;55961;52.156;20.942;2022-07-17T04:16:04;13.00;80.20
68924;DHT22;55961;52.156;20.942;2022-07-17T04:18:32;13.00;80.20
68924;DHT22;55961;52.156;20.942;2022-07-17T04:21:01;13.10;80.30
68924;DHT22;55961;52.156;20.942;2022-07-17T04:23:28;13.10;80.20
68924;DHT22;55961;52.156;20.942;2022-07-17T04:25:54;13.20;79.80
68924;DHT22;55961;52.156;20.942;2022-07-17T04:28:20;13.20;79.60
68924;DHT22;55961;52.156;20.942;2022-07-17T04:30:46;13.20;79.70
68924;DHT22;55961;52.156;20.942;2022-07-17T04:33:12;13.20;79.80
68924;DHT22;55961;52.156;20.942;2022-07-17T04:35:39;13.30;79.80
68924;DHT22;55961;52.156;20.942;2022-07-17T04:38:05;13.30;79.60
68924;DHT22;55961;52.156;20.942;2022-07-17T04:40:33;13.30;79.90
68924;DHT22;55961;52.156;20.942;2022-07-17T04:42:59;13.40;79.60
68924;DHT22;55961;52.156;20.942;2022-07-17T04:45:25;13.50;79.30
68924;DHT22;55961;52.156;20.942;2022-07-17T04:47:51;13.50;79.30
68924;DHT22;55961;52.156;20.942;2022-07-17T04:50:17;13.60;79.10
68924;DHT22;55961;52.156;20.942;2022-07-17T04:52:43;13.70;78.90
68924;DHT22;55961;52.156;20.942;2022-07-17T04:55:09;13.80;78.60
68924;DHT22;55961;52.156;20.942;2022-07-17T04:57:35;13.80;78.10
68924;DHT22;55961;52.156;20.942;2022-07-17T05:00:03;13.80;77.80
68924;DHT22;55961;52.156;20.942;2022-07-17T05:02:29;13.90;77.50
68924;DHT22;55961;52.156;20.942;2022-07-17T05:04:55;13.90;77.30
68924;DHT22;55961;52.156;20.942;2022-07-17T05:07:22;13.90;77.10
68924;DHT22;55961;52.156;20.942;2022-07-17T05:09:48;14.00;77.30
68924;DHT22;55961;52.156;20.942;2022-07-17T05:12:13;14.00;77.30
68924;DHT22;55961;52.156;20.942;2022-07-17T05:14:39;14.10;77.20
68924;DHT22;55961;52.156;20.942;2022-07-17T05:17:05;14.10;76.90
68924;DHT22;55961;52.156;20.942;2022-07-17T05:19:31;14.30;76.70
68924;DHT22;55961;52.156;20.942;2022-07-17T05:21:57;14.30;76.60
68924;DHT22;55961;52.156;20.942;2022-07-17T05:24:23;14.40;76.00
68924;DHT22;55961;52.156;20.942;2022-07-17T05:26:48;14.50;75.80
68924;DHT22;55961;52.156;20.942;2022-07-17T05:29:14;14.50;75.90
68924;DHT22;55961;52.156;20.942;2022-07-17T05:31:40;14.60;75.00
68924;DHT22;55961;52.156;20.942;2022-07-17T05:34:06;14.70;75.40
68924;DHT22;55961;52.156;20.942;2022-07-17T05:36:32;14.80;75.30
68924;DHT22;55961;52.156;20.942;2022-07-17T05:38:57;15.00;74.70
68924;DHT22;55961;52.156;20.942;2022-07-17T05:41:23;15.10;74.00
68924;DHT22;55961;52.156;20.942;2022-07-17T05:43:49;15.20;73.70
68924;DHT22;55961;52.156;20.942;2022-07-17T05:46:15;15.20;72.70
68924;DHT22;55961;52.156;20.942;2022-07-17T05:48:41;15.20;72.70
68924;DHT22;55961;52.156;20.942;2022-07-17T05:51:07;15.20;73.20
68924;DHT22;55961;52.156;20.942;2022-07-17T05:53:33;15.30;73.20
68924;DHT22;55961;52.156;20.942;2022-07-17T05:55:59;15.30;73.30
68924;DHT22;55961;52.156;20.942;2022-07-17T05:58:25;15.40;73.00
68924;DHT22;55961;52.156;20.942;2022-07-17T06:00:51;15.40;72.90
68924;DHT22;55961;52.156;20.942;2022-07-17T06:03:17;15.40;72.70
68924;DHT22;55961;52.156;20.942;2022-07-17T06:05:43;15.40;72.40
68924;DHT22;55961;52.156;20.942;2022-07-17T06:08:09;15.40;72.40
68924;DHT22;55961;52.156;20.942;2022-07-17T06:10:35;15.40;72.80
68924;DHT22;55961;52.156;20.942;2022-07-17T06:13:03;15.40;73.20
68924;DHT22;55961;52.156;20.942;2022-07-17T06:15:29;15.40;73.20
68924;DHT22;55961;52.156;20.942;2022-07-17T06:17:55;15.40;72.70
68924;DHT22;55961;52.156;20.942;2022-07-17T06:20:21;15.40;72.50
68924;DHT22;55961;52.156;20.942;2022-07-17T06:22:47;15.40;72.70
68924;DHT22;55961;52.156;20.942;2022-07-17T06:25:13;15.40;72.30
68924;DHT22;55961;52.156;20.942;2022-07-17T06:27:40;15.40;71.80
68924;DHT22;55961;52.156;20.942;2022-07-17T06:30:11;15.40;72.20
68924;DHT22;55961;52.156;20.942;2022-07-17T06:32:37;15.40;72.40
68924;DHT22;55961;52.156;20.942;2022-07-17T06:35:03;15.40;72.50
68924;DHT22;55961;52.156;20.942;2022-07-17T06:37:29;15.40;72.40
68924;DHT22;55961;52.156;20.942;2022-07-17T06:39:55;15.40;72.90
68924;DHT22;55961;52.156;20.942;2022-07-17T06:42:21;15.50;73.40
68924;DHT22;55961;52.156;20.942;2022-07-17T06:44:47;15.50;73.40
68924;DHT22;55961;52.156;20.942;2022-07-17T06:47:13;15.60;72.60
68924;DHT22;55961;52.156;20.942;2022-07-17T06:49:39;15.70;72.50
68924;DHT22;55961;52.156;20.942;2022-07-17T06:52:06;15.70;71.70
68924;DHT22;55961;52.156;20.942;2022-07-17T06:54:32;15.80;71.60
68924;DHT22;55961;52.156;20.942;2022-07-17T06:56:58;15.80;71.50
68924;DHT22;55961;52.156;20.942;2022-07-17T06:59:24;15.80;71.70
68924;DHT22;55961;52.156;20.942;2022-07-17T07:01:50;15.90;72.00
68924;DHT22;55961;52.156;20.942;2022-07-17T07:04:16;15.90;72.20
68924;DHT22;55961;52.156;20.942;2022-07-17T07:06:42;16.00;71.80
68924;DHT22;55961;52.156;20.942;2022-07-17T07:09:08;16.10;71.30
68924;DHT22;55961;52.156;20.942;2022-07-17T07:11:37;16.20;71.70
68924;DHT22;55961;52.156;20.942;2022-07-17T07:14:04;16.30;70.90
68924;DHT22;55961;52.156;20.942;2022-07-17T07:16:30;16.40;70.30
68924;DHT22;55961;52.156;20.942;2022-07-17T07:18:56;16.50;70.10
68924;DHT22;55961;52.156;20.942;2022-07-17T07:21:22;16.50;70.30
68924;DHT22;55961;52.156;20.942;2022-07-17T07:23:50;16.60;70.50
68924;DHT22;55961;52.156;20.942;2022-07-17T07:26:16;16.70;69.70
68924;DHT22;55961;52.156;20.942;2022-07-17T07:28:42;16.70;69.40
68924;DHT22;55961;52.156;20.942;2022-07-17T07:31:08;16.80;69.60
68924;DHT22;55961;52.156;20.942;2022-07-17T07:33:34;16.80;69.10
68924;DHT22;55961;52.156;20.942;2022-07-17T07:36:00;16.90;69.40
68924;DHT22;55961;52.156;20.942;2022-07-17T07:38:26;16.90;69.50
68924;DHT22;55961;52.156;20.942;2022-07-17T07:40:51;17.00;69.10
68924;DHT22;55961;52.156;20.942;2022-07-17T07:43:17;17.10;69.10
68924;DHT22;55961;52.156;20.942;2022-07-17T07:45:43;17.30;68.20
68924;DHT22;55961;52.156;20.942;2022-07-17T07:48:09;17.40;68.40
68924;DHT22;55961;52.156;20.942;2022-07-17T07:50:35;17.50;67.20
68924;DHT22;55961;52.156;20.942;2022-07-17T07:53:00;17.70;67.30
68924;DHT22;55961;52.156;20.942;2022-07-17T07:55:26;17.80;67.40
68924;DHT22;55961;52.156;20.942;2022-07-17T07:58:06;17.90;67.30
68924;DHT22;55961;52.156;20.942;2022-07-17T08:00:33;18.00;66.50
68924;DHT22;55961;52.156;20.942;2022-07-17T08:02:59;18.10;67.00
68924;DHT22;55961;52.156;20.942;2022-07-17T08:05:25;18.30;66.00
68924;DHT22;55961;52.156;20.942;2022-07-17T08:07:51;18.40;66.00
68924;DHT22;55961;52.156;20.942;2022-07-17T08:10:17;18.60;65.30
68924;DHT22;55961;52.156;20.942;2022-07-17T08:12:43;18.70;64.80
68924;DHT22;55961;52.156;20.942;2022-07-17T08:15:09;18.90;64.50
68924;DHT22;55961;52.156;20.942;2022-07-17T08:17:35;19.00;64.10
68924;DHT22;55961;52.156;20.942;2022-07-17T08:20:01;19.10;62.50
68924;DHT22;55961;52.156;20.942;2022-07-17T08:22:27;19.20;63.30
68924;DHT22;55961;52.156;20.942;2022-07-17T08:24:53;19.30;62.50
68924;DHT22;55961;52.156;20.942;2022-07-17T08:27:19;19.40;62.00
68924;DHT22;55961;52.156;20.942;2022-07-17T08:29:45;19.40;61.80
68924;DHT22;55961;52.156;20.942;2022-07-17T08:32:11;19.50;62.10
68924;DHT22;55961;52.156;20.942;2022-07-17T08:34:37;19.50;61.70
68924;DHT22;55961;52.156;20.942;2022-07-17T08:37:03;19.70;61.90
68924;DHT22;55961;52.156;20.942;2022-07-17T08:39:29;19.80;60.50
68924;DHT22;55961;52.156;20.942;2022-07-17T08:41:54;19.90;60.20
68924;DHT22;55961;52.156;20.942;2022-07-17T08:44:21;20.10;60.10
68924;DHT22;55961;52.156;20.942;2022-07-17T08:46:50;20.30;58.90
68924;DHT22;55961;52.156;20.942;2022-07-17T08:49:21;20.40;58.20
68924;DHT22;55961;52.156;20.942;2022-07-17T08:51:48;20.40;58.20
68924;DHT22;55961;52.156;20.942;2022-07-17T08:54:14;20.60;57.70
68924;DHT22;55961;52.156;20.942;2022-07-17T08:56:40;20.60;56.80
68924;DHT22;55961;52.156;20.942;2022-07-17T08:59:06;20.70;56.30
68924;DHT22;55961;52.156;20.942;2022-07-17T09:01:32;20.70;56.60
68924;DHT22;55961;52.156;20.942;2022-07-17T09:06:25;20.90;55.70
68924;DHT22;55961;52.156;20.942;2022-07-17T09:09:04;21.10;54.40
68924;DHT22;55961;52.156;20.942;2022-07-17T09:11:41;21.20;54.30
68924;DHT22;55961;52.156;20.942;2022-07-17T09:14:08;21.30;55.00
68924;DHT22;55961;52.156;20.942;2022-07-17T09:16:35;21.40;52.80
68924;DHT22;55961;52.156;20.942;2022-07-17T09:19:02;21.50;53.10
68924;DHT22;55961;52.156;20.942;2022-07-17T09:21:29;21.60;51.90
68924;DHT22;55961;52.156;20.942;2022-07-17T09:24:03;21.70;52.60
68924;DHT22;55961;52.156;20.942;2022-07-17T09:26:30;21.80;52.10
68924;DHT22;55961;52.156;20.942;2022-07-17T09:28:57;21.90;52.00
68924;DHT22;55961;52.156;20.942;2022-07-17T09:31:27;22.00;51.20
68924;DHT22;55961;52.156;20.942;2022-07-17T09:33:53;22.20;51.40
68924;DHT22;55961;52.156;20.942;2022-07-17T09:36:19;22.30;49.30
68924;DHT22;55961;52.156;20.942;2022-07-17T09:38:46;22.40;50.30
68924;DHT22;55961;52.156;20.942;2022-07-17T09:41:18;22.40;50.00
68924;DHT22;55961;52.156;20.942;2022-07-17T09:43:58;22.50;48.80
68924;DHT22;55961;52.156;20.942;2022-07-17T09:46:26;22.60;49.80
68924;DHT22;55961;52.156;20.942;2022-07-17T09:48:54;22.70;49.70
68924;DHT22;55961;52.156;20.942;2022-07-17T09:51:23;22.90;47.50
68924;DHT22;55961;52.156;20.942;2022-07-17T09:53:51;22.90;47.40
68924;DHT22;55961;52.156;20.942;2022-07-17T09:56:18;22.90;47.50
68924;DHT22;55961;52.156;20.942;2022-07-17T09:58:51;22.80;48.10
68924;DHT22;55961;52.156;20.942;2022-07-17T10:01:18;22.80;48.30
68924;DHT22;55961;52.156;20.942;2022-07-17T10:03:44;22.80;48.60
68924;DHT22;55961;52.156;20.942;2022-07-17T10:06:11;22.90;48.30
68924;DHT22;55961;52.156;20.942;2022-07-17T10:08:38;22.90;48.20
68924;DHT22;55961;52.156;20.942;2022-07-17T10:11:09;22.90;46.60
68924;DHT22;55961;52.156;20.942;2022-07-17T10:13:37;23.00;46.30
68924;DHT22;55961;52.156;20.942;2022-07-17T10:16:04;22.90;46.20
68924;DHT22;55961;52.156;20.942;2022-07-17T10:18:39;22.80;46.50
68924;DHT22;55961;52.156;20.942;2022-07-17T10:21:12;22.80;48.00
68924;DHT22;55961;52.156;20.942;2022-07-17T10:23:38;22.70;48.50
68924;DHT22;55961;52.156;20.942;2022-07-17T10:26:04;22.70;47.30
68924;DHT22;55961;52.156;20.942;2022-07-17T10:28:43;22.60;47.40
68924;DHT22;55961;52.156;20.942;2022-07-17T10:31:10;22.60;47.60
68924;DHT22;55961;52.156;20.942;2022-07-17T10:33:58;22.60;47.70
68924;DHT22;55961;52.156;20.942;2022-07-17T10:36:39;22.50;46.80
68924;DHT22;55961;52.156;20.942;2022-07-17T10:39:19;22.50;47.20
68924;DHT22;55961;52.156;20.942;2022-07-17T10:41:59;22.40;47.10
68924;DHT22;55961;52.156;20.942;2022-07-17T10:44:30;22.40;47.10
68924;DHT22;55961;52.156;20.942;2022-07-17T10:46:58;22.30;47.40
68924;DHT22;55961;52.156;20.942;2022-07-17T10:49:24;22.20;47.90
68924;DHT22;55961;52.156;20.942;2022-07-17T10:51:51;22.10;48.10
68924;DHT22;55961;52.156;20.942;2022-07-17T10:54:18;22.10;47.40
68924;DHT22;55961;52.156;20.942;2022-07-17T10:56:45;22.10;48.20
68924;DHT22;55961;52.156;20.942;2022-07-17T10:59:11;22.20;48.50
68924;DHT22;55961;52.156;20.942;2022-07-17T11:01:38;22.30;48.70
68924;DHT22;55961;52.156;20.942;2022-07-17T11:04:05;22.50;47.10
68924;DHT22;55961;52.156;20.942;2022-07-17T11:06:37;22.70;47.20
68924;DHT22;55961;52.156;20.942;2022-07-17T11:09:05;23.00;47.50
68924;DHT22;55961;52.156;20.942;2022-07-17T11:11:42;23.20;46.70
68924;DHT22;55961;52.156;20.942;2022-07-17T11:16:58;23.50;45.50
68924;DHT22;55961;52.156;20.942;2022-07-17T11:22:00;23.60;45.80
68924;DHT22;55961;52.156;20.942;2022-07-17T11:24:36;23.60;46.00
68924;DHT22;55961;52.156;20.942;2022-07-17T11:27:02;23.70;45.90
68924;DHT22;55961;52.156;20.942;2022-07-17T11:29:28;23.80;44.70
68924;DHT22;55961;52.156;20.942;2022-07-17T11:31:57;23.80;44.90
68924;DHT22;55961;52.156;20.942;2022-07-17T11:34:25;23.70;45.30
68924;DHT22;55961;52.156;20.942;2022-07-17T11:37:02;23.70;45.50
68924;DHT22;55961;52.156;20.942;2022-07-17T11:39:41;23.70;45.00
68924;DHT22;55961;52.156;20.942;2022-07-17T11:42:17;23.60;44.50
68924;DHT22;55961;52.156;20.942;2022-07-17T11:44:43;23.60;43.70
68924;DHT22;55961;52.156;20.942;2022-07-17T11:47:10;23.50;44.20
68924;DHT22;55961;52.156;20.942;2022-07-17T11:49:38;23.50;44.50
68924;DHT22;55961;52.156;20.942;2022-07-17T11:52:13;23.60;43.20
68924;DHT22;55961;52.156;20.942;2022-07-17T11:54:53;23.70;43.80
68924;DHT22;55961;52.156;20.942;2022-07-17T11:57:22;23.80;42.70
68924;DHT22;55961;52.156;20.942;2022-07-17T11:59:48;23.90;42.20
68924;DHT22;55961;52.156;20.942;2022-07-17T12:02:15;24.00;42.30
68924;DHT22;55961;52.156;20.942;2022-07-17T12:04:56;24.10;41.10
68924;DHT22;55961;52.156;20.942;2022-07-17T12:07:46;24.10;40.00
68924;DHT22;55961;52.156;20.942;2022-07-17T12:10:20;24.30;40.50
68924;DHT22;55961;52.156;20.942;2022-07-17T12:12:58;24.50;39.10
68924;DHT22;55961;52.156;20.942;2022-07-17T12:18:18;24.80;37.60
68924;DHT22;55961;52.156;20.942;2022-07-17T12:20:46;24.90;38.20
68924;DHT22;55961;52.156;20.942;2022-07-17T12:23:34;25.10;37.50
68924;DHT22;55961;52.156;20.942;2022-07-17T12:28:34;25.30;37.40
68924;DHT22;55961;52.156;20.942;2022-07-17T12:31:00;25.40;38.00
68924;DHT22;55961;52.156;20.942;2022-07-17T12:33:27;25.60;37.20
68924;DHT22;55961;52.156;20.942;2022-07-17T12:35:53;25.70;37.20
68924;DHT22;55961;52.156;20.942;2022-07-17T12:38:19;25.80;38.30
68924;DHT22;55961;52.156;20.942;2022-07-17T12:40:45;25.90;36.60
68924;DHT22;55961;52.156;20.942;2022-07-17T12:43:11;25.90;36.00
68924;DHT22;55961;52.156;20.942;2022-07-17T12:45:37;26.00;36.40
68924;DHT22;55961;52.156;20.942;2022-07-17T12:48:03;26.10;36.50
68924;DHT22;55961;52.156;20.942;2022-07-17T12:50:29;26.20;36.80
68924;DHT22;55961;52.156;20.942;2022-07-17T12:52:54;26.30;35.70
68924;DHT22;55961;52.156;20.942;2022-07-17T12:55:20;26.20;36.10
68924;DHT22;55961;52.156;20.942;2022-07-17T12:57:46;26.20;36.80
68924;DHT22;55961;52.156;20.942;2022-07-17T13:00:13;26.20;36.80
68924;DHT22;55961;52.156;20.942;2022-07-17T13:02:40;26.20;36.20
68924;DHT22;55961;52.156;20.942;2022-07-17T13:05:06;26.20;35.90
68924;DHT22;55961;52.156;20.942;2022-07-17T13:07:32;26.10;36.20
68924;DHT22;55961;52.156;20.942;2022-07-17T13:09:58;26.00;37.00
68924;DHT22;55961;52.156;20.942;2022-07-17T13:12:24;25.80;37.80
68924;DHT22;55961;52.156;20.942;2022-07-17T13:14:50;25.70;38.10
68924;DHT22;55961;52.156;20.942;2022-07-17T13:17:15;25.50;38.30
68924;DHT22;55961;52.156;20.942;2022-07-17T13:19:42;25.40;39.10
68924;DHT22;55961;52.156;20.942;2022-07-17T13:22:07;25.40;39.80
68924;DHT22;55961;52.156;20.942;2022-07-17T13:24:33;25.40;39.90
68924;DHT22;55961;52.156;20.942;2022-07-17T13:26:59;25.50;38.70
68924;DHT22;55961;52.156;20.942;2022-07-17T13:29:25;25.50;38.90
68924;DHT22;55961;52.156;20.942;2022-07-17T13:31:53;25.60;38.60
68924;DHT22;55961;52.156;20.942;2022-07-17T13:34:20;25.80;38.00
68924;DHT22;55961;52.156;20.942;2022-07-17T13:36:46;25.90;37.80
68924;DHT22;55961;52.156;20.942;2022-07-17T13:39:12;26.00;36.90
68924;DHT22;55961;52.156;20.942;2022-07-17T13:41:38;26.10;36.70
68924;DHT22;55961;52.156;20.942;2022-07-17T13:44:05;26.30;36.60
68924;DHT22;55961;52.156;20.942;2022-07-17T13:46:31;26.40;36.70
68924;DHT22;55961;52.156;20.942;2022-07-17T13:48:57;26.40;35.40
68924;DHT22;55961;52.156;20.942;2022-07-17T13:51:25;26.50;35.70
68924;DHT22;55961;52.156;20.942;2022-07-17T13:53:52;26.40;35.70
68924;DHT22;55961;52.156;20.942;2022-07-17T13:56:18;26.40;36.20
68924;DHT22;55961;52.156;20.942;2022-07-17T13:58:44;26.30;36.40
68924;DHT22;55961;52.156;20.942;2022-07-17T14:01:13;26.30;36.80
68924;DHT22;55961;52.156;20.942;2022-07-17T14:03:39;26.20;36.80
68924;DHT22;55961;52.156;20.942;2022-07-17T14:06:05;26.20;37.20
68924;DHT22;55961;52.156;20.942;2022-07-17T14:08:32;26.10;37.40
68924;DHT22;55961;52.156;20.942;2022-07-17T14:10:58;26.00;36.60
68924;DHT22;55961;52.156;20.942;2022-07-17T14:13:24;25.90;36.60
68924;DHT22;55961;52.156;20.942;2022-07-17T14:15:50;25.80;36.80
68924;DHT22;55961;52.156;20.942;2022-07-17T14:18:16;25.80;36.50
68924;DHT22;55961;52.156;20.942;2022-07-17T14:20:44;25.60;36.50
68924;DHT22;55961;52.156;20.942;2022-07-17T14:23:10;25.50;36.70
68924;DHT22;55961;52.156;20.942;2022-07-17T14:25:37;25.40;37.40
68924;DHT22;55961;52.156;20.942;2022-07-17T14:28:03;25.40;38.00
68924;DHT22;55961;52.156;20.942;2022-07-17T14:30:29;25.30;37.80
68924;DHT22;55961;52.156;20.942;2022-07-17T14:33:00;25.30;38.30
68924;DHT22;55961;52.156;20.942;2022-07-17T14:35:27;25.20;38.30
68924;DHT22;55961;52.156;20.942;2022-07-17T14:37:54;25.20;38.40
68924;DHT22;55961;52.156;20.942;2022-07-17T14:40:26;25.10;38.30
68924;DHT22;55961;52.156;20.942;2022-07-17T14:42:53;25.10;39.00
68924;DHT22;55961;52.156;20.942;2022-07-17T14:45:24;25.10;39.20
68924;DHT22;55961;52.156;20.942;2022-07-17T14:47:53;25.10;39.40
68924;DHT22;55961;52.156;20.942;2022-07-17T14:50:34;25.10;39.30
68924;DHT22;55961;52.156;20.942;2022-07-17T14:53:00;25.00;39.30
68924;DHT22;55961;52.156;20.942;2022-07-17T14:55:26;25.00;39.40
68924;DHT22;55961;52.156;20.942;2022-07-17T14:57:52;25.10;40.00
68924;DHT22;55961;52.156;20.942;2022-07-17T15:00:20;25.10;39.80
68924;DHT22;55961;52.156;20.942;2022-07-17T15:03:02;25.20;39.80
68924;DHT22;55961;52.156;20.942;2022-07-17T15:05:27;25.30;39.40
68924;DHT22;55961;52.156;20.942;2022-07-17T15:07:53;25.30;39.40
68924;DHT22;55961;52.156;20.942;2022-07-17T15:10:19;25.40;39.00
68924;DHT22;55961;52.156;20.942;2022-07-17T15:12:45;25.40;38.70
68924;DHT22;55961;52.156;20.942;2022-07-17T15:15:11;25.50;37.60
68924;DHT22;55961;52.156;20.942;2022-07-17T15:17:37;25.50;37.20
68924;DHT22;55961;52.156;20.942;2022-07-17T15:20:05;25.50;37.10
68924;DHT22;55961;52.156;20.942;2022-07-17T15:22:33;25.50;36.50
68924;DHT22;55961;52.156;20.942;2022-07-17T15:25:13;25.50;36.30
68924;DHT22;55961;52.156;20.942;2022-07-17T15:27:46;25.50;35.90
68924;DHT22;55961;52.156;20.942;2022-07-17T15:30:12;25.50;36.50